createdAt,value
2023-09-15T00:00:27.359Z,7.10
2023-09-15T00:02:56.569Z,8.95
2023-09-15T00:05:29.517Z,7.50
2023-09-15T00:08:01.276Z,7.18
2023-09-15T00:10:28.116Z,7.10
2023-09-15T00:12:54.969Z,10.60
2023-09-15T00:15:21.967Z,9.98
2023-09-15T00:17:49.350Z,7.53
2023-09-15T00:20:17.824Z,6.90
2023-09-15T00:22:50.721Z,6.60
2023-09-15T00:25:27.094Z,8.75
2023-09-15T00:27:58.143Z,8.98
2023-09-15T00:30:26.553Z,10.57
2023-09-15T00:32:53.945Z,10.43
2023-09-15T00:35:25.240Z,6.90
2023-09-15T00:37:53.098Z,6.40
2023-09-15T00:40:21.665Z,7.35
2023-09-15T00:42:50.683Z,6.63
2023-09-15T00:45:20.684Z,6.57
2023-09-15T00:47:51.786Z,7.95
2023-09-15T00:50:23.008Z,7.93
2023-09-15T00:53:13.838Z,8.55
2023-09-15T00:55:42.700Z,8.05
2023-09-15T00:58:13.260Z,9.57
2023-09-15T01:00:43.579Z,7.07
2023-09-15T01:03:12.481Z,7.40
2023-09-15T01:05:41.981Z,9.40
2023-09-15T01:08:08.633Z,7.30
2023-09-15T01:10:35.575Z,7.18
2023-09-15T01:13:02.357Z,9.10
2023-09-15T01:15:55.501Z,8.98
2023-09-15T01:18:51.007Z,10.05
2023-09-15T01:21:55.981Z,7.90
2023-09-15T01:24:22.459Z,11.25
2023-09-15T01:27:04.285Z,9.18
2023-09-15T01:29:47.277Z,9.68
2023-09-15T01:32:15.770Z,7.75
2023-09-15T01:34:49.341Z,7.97
2023-09-15T01:37:16.238Z,8.30
2023-09-15T01:39:43.758Z,9.90
2023-09-15T01:42:10.746Z,7.20
2023-09-15T01:44:37.528Z,8.60
2023-09-15T01:47:07.477Z,8.25
2023-09-15T01:49:34.681Z,8.38
2023-09-15T01:52:02.550Z,7.88
2023-09-15T01:54:29.223Z,6.43
2023-09-15T01:56:55.917Z,7.32
2023-09-15T01:59:22.555Z,9.80
2023-09-15T02:01:49.215Z,7.07
2023-09-15T02:04:15.989Z,8.15
2023-09-15T02:06:42.579Z,8.50
2023-09-15T02:09:09.608Z,6.90
2023-09-15T02:11:36.204Z,9.65
2023-09-15T02:14:02.780Z,7.05
2023-09-15T02:16:29.496Z,9.88
2023-09-15T02:18:56.214Z,6.97
2023-09-15T02:21:22.848Z,8.23
2023-09-15T02:23:49.544Z,7.95
2023-09-15T02:26:16.128Z,9.07
2023-09-15T02:28:42.804Z,8.02
2023-09-15T02:31:09.648Z,7.60
2023-09-15T02:33:36.561Z,7.43
2023-09-15T02:36:05.218Z,9.52
2023-09-15T02:38:31.916Z,10.70
2023-09-15T02:40:58.452Z,8.02
2023-09-15T02:43:25.093Z,7.18
2023-09-15T02:45:51.988Z,9.88
2023-09-15T02:48:18.663Z,7.88
2023-09-15T02:50:46.561Z,7.25
2023-09-15T02:53:14.399Z,7.55
2023-09-15T02:55:40.953Z,7.15
2023-09-15T02:58:07.679Z,7.55
2023-09-15T03:00:34.531Z,8.15
2023-09-15T03:03:01.449Z,9.25
2023-09-15T03:05:28.118Z,8.20
2023-09-15T03:07:55.193Z,7.10
2023-09-15T03:10:21.786Z,9.05
2023-09-15T03:12:49.053Z,8.43
2023-09-15T03:15:17.155Z,6.60
2023-09-15T03:17:43.920Z,6.60
2023-09-15T03:20:17.338Z,10.18
2023-09-15T03:22:44.838Z,7.25
2023-09-15T03:25:12.266Z,9.23
2023-09-15T03:27:39.027Z,7.10
2023-09-15T03:30:07.615Z,9.15
2023-09-15T03:32:35.011Z,8.02
2023-09-15T03:35:01.912Z,8.88
2023-09-15T03:37:28.493Z,7.03
2023-09-15T03:39:55.307Z,7.57
2023-09-15T03:42:22.123Z,6.95
2023-09-15T03:44:48.651Z,8.98
2023-09-15T03:47:15.300Z,7.95
2023-09-15T03:49:41.904Z,6.72
2023-09-15T03:52:08.696Z,7.13
2023-09-15T03:54:35.421Z,8.30
2023-09-15T03:57:01.951Z,7.05
2023-09-15T03:59:28.597Z,8.18
2023-09-15T04:01:55.480Z,8.45
2023-09-15T04:04:22.355Z,8.05
2023-09-15T04:06:49.153Z,9.13
2023-09-15T04:09:15.785Z,7.25
2023-09-15T04:11:42.777Z,8.10
2023-09-15T04:14:09.303Z,11.65
2023-09-15T04:16:38.945Z,8.18
2023-09-15T04:19:05.799Z,9.45
2023-09-15T04:21:32.449Z,8.73
2023-09-15T04:23:59.164Z,7.45
2023-09-15T04:26:25.822Z,8.02
2023-09-15T04:28:52.393Z,9.73
2023-09-15T04:31:19.149Z,7.75
2023-09-15T04:33:46.725Z,7.10
2023-09-15T04:36:13.649Z,8.35
2023-09-15T04:38:40.401Z,7.18
2023-09-15T04:41:07.387Z,7.65
2023-09-15T04:43:33.993Z,7.30
2023-09-15T04:46:00.958Z,6.85
2023-09-15T04:48:27.661Z,8.50
2023-09-15T04:50:54.411Z,7.75
2023-09-15T04:53:21.779Z,7.53
2023-09-15T04:55:52.034Z,6.70
2023-09-15T04:58:18.754Z,8.15
2023-09-15T05:00:52.311Z,7.07
2023-09-15T05:03:19.095Z,7.95
2023-09-15T05:05:46.714Z,6.72
2023-09-15T05:08:13.534Z,9.52
2023-09-15T05:10:40.637Z,5.55
2023-09-15T05:13:07.290Z,8.52
2023-09-15T05:15:35.452Z,6.28
2023-09-15T05:18:02.300Z,8.55
2023-09-15T05:20:28.978Z,6.10
2023-09-15T05:22:55.619Z,8.07
2023-09-15T05:25:22.456Z,6.93
2023-09-15T05:27:49.140Z,8.05
2023-09-15T05:30:17.889Z,8.38
2023-09-15T05:32:44.887Z,9.00
2023-09-15T05:35:11.844Z,7.45
2023-09-15T05:37:38.817Z,18.88
2023-09-15T05:40:06.487Z,14.82
2023-09-15T05:42:33.230Z,16.88
2023-09-15T05:45:00.379Z,14.18
2023-09-15T05:47:28.332Z,15.00
2023-09-15T05:49:54.982Z,11.77
2023-09-15T05:52:21.708Z,13.57
2023-09-15T05:54:48.836Z,12.27
2023-09-15T05:57:15.493Z,11.52
2023-09-15T05:59:42.102Z,12.20
2023-09-15T06:02:08.778Z,16.15
2023-09-15T06:04:35.976Z,10.45
2023-09-15T06:07:02.862Z,9.98
2023-09-15T06:09:29.557Z,12.15
2023-09-15T06:11:56.331Z,10.32
2023-09-15T06:14:22.914Z,12.18
2023-09-15T06:16:49.753Z,13.77
2023-09-15T06:19:16.469Z,11.57
2023-09-15T06:21:43.125Z,8.45
2023-09-15T06:24:09.733Z,9.73
2023-09-15T06:26:37.892Z,10.48
2023-09-15T06:29:04.683Z,9.10
2023-09-15T06:31:31.645Z,10.43
2023-09-15T06:33:58.652Z,8.55
2023-09-15T06:36:27.678Z,10.13
2023-09-15T06:38:54.528Z,11.00
2023-09-15T06:41:21.636Z,12.00
2023-09-15T06:43:48.197Z,9.57
2023-09-15T06:46:19.989Z,8.95
2023-09-15T06:48:47.603Z,9.52
2023-09-15T06:51:14.515Z,9.38
2023-09-15T06:53:41.218Z,9.30
2023-09-15T06:56:08.222Z,6.93
2023-09-15T06:58:35.207Z,7.65
2023-09-15T07:01:05.000Z,11.20
2023-09-15T07:03:32.606Z,8.15
2023-09-15T07:05:59.802Z,7.55
2023-09-15T07:08:26.613Z,7.78
2023-09-15T07:10:53.879Z,7.88
2023-09-15T07:13:20.860Z,9.75
2023-09-15T07:15:48.866Z,8.77
2023-09-15T07:18:16.526Z,9.35
2023-09-15T07:20:43.684Z,9.18
2023-09-15T07:23:11.466Z,8.65
2023-09-15T07:25:38.621Z,8.70
2023-09-15T07:28:06.531Z,8.40
2023-09-15T07:30:33.444Z,8.60
2023-09-15T07:33:02.466Z,7.97
2023-09-15T07:35:29.591Z,7.35
2023-09-15T07:37:56.739Z,8.00
2023-09-15T07:40:25.678Z,7.70
2023-09-15T07:42:52.764Z,11.93
2023-09-15T07:45:19.685Z,8.07
2023-09-15T07:47:46.594Z,8.73
2023-09-15T07:50:14.697Z,6.82
2023-09-15T07:52:42.329Z,8.23
2023-09-15T07:55:09.165Z,8.52
2023-09-15T07:57:38.635Z,6.93
2023-09-15T08:00:08.083Z,7.35
2023-09-15T08:02:37.736Z,10.57
2023-09-15T08:05:06.373Z,6.93
2023-09-15T08:07:33.297Z,10.23
2023-09-15T08:10:02.380Z,10.45
2023-09-15T08:12:29.655Z,6.72
2023-09-15T08:14:58.770Z,5.95
2023-09-15T08:17:33.296Z,7.95
2023-09-15T08:20:02.610Z,8.40
2023-09-15T08:22:30.046Z,6.32
2023-09-15T08:24:57.315Z,7.25
2023-09-15T08:27:27.323Z,6.88
2023-09-15T08:29:54.443Z,5.90
2023-09-15T08:32:21.454Z,5.72
2023-09-15T08:34:48.460Z,7.80
2023-09-15T08:37:16.685Z,6.07
2023-09-15T08:39:46.247Z,6.90
2023-09-15T08:42:32.261Z,8.55
2023-09-15T08:45:00.898Z,5.63
2023-09-15T08:47:33.437Z,5.82
2023-09-15T08:50:07.467Z,8.13
2023-09-15T08:52:37.464Z,6.45
2023-09-15T08:55:09.245Z,5.97
2023-09-15T08:57:43.204Z,5.07
2023-09-15T09:00:14.655Z,5.63
2023-09-15T09:02:44.795Z,5.47
2023-09-15T09:05:14.840Z,6.28
2023-09-15T09:07:42.278Z,4.68
2023-09-15T09:10:09.943Z,4.72
2023-09-15T09:12:39.387Z,6.10
2023-09-15T09:15:08.673Z,6.53
2023-09-15T09:17:35.380Z,5.15
2023-09-15T09:20:02.380Z,5.47
2023-09-15T09:22:29.483Z,6.38
2023-09-15T09:24:59.541Z,5.90
2023-09-15T09:27:35.647Z,5.35
2023-09-15T09:30:03.229Z,4.80
2023-09-15T09:32:30.436Z,5.68
2023-09-15T09:34:57.405Z,6.10
2023-09-15T09:37:27.795Z,4.38
2023-09-15T09:39:55.288Z,5.32
2023-09-15T09:42:26.711Z,4.45
2023-09-15T09:44:54.478Z,5.57
2023-09-15T09:47:26.568Z,4.05
2023-09-15T09:49:56.474Z,5.93
2023-09-15T09:52:25.748Z,5.72
2023-09-15T09:54:53.410Z,5.13
2023-09-15T09:57:21.184Z,6.30
2023-09-15T09:59:48.746Z,4.18
2023-09-15T10:02:19.298Z,4.75
2023-09-15T10:04:46.937Z,4.68
2023-09-15T10:07:16.977Z,3.35
2023-09-15T10:09:50.718Z,4.03
2023-09-15T10:12:18.029Z,3.95
2023-09-15T10:14:48.692Z,5.10
2023-09-15T10:17:16.510Z,3.95
2023-09-15T10:19:44.178Z,4.32
2023-09-15T10:22:12.142Z,3.88
2023-09-15T10:24:44.625Z,6.18
2023-09-15T10:27:12.816Z,4.53
2023-09-15T10:29:43.380Z,4.43
2023-09-15T10:32:20.312Z,3.45
2023-09-15T10:34:50.584Z,5.43
2023-09-15T10:37:19.656Z,7.00
2023-09-15T10:46:46.789Z,3.72
2023-09-15T10:49:21.908Z,4.10
2023-09-15T10:52:02.858Z,4.63
2023-09-15T10:54:36.160Z,7.40
2023-09-15T10:57:06.041Z,5.35
2023-09-15T10:59:34.202Z,4.05
2023-09-15T11:02:04.140Z,4.28
2023-09-15T11:04:33.382Z,4.65
2023-09-15T11:07:14.124Z,5.88
2023-09-15T11:09:53.650Z,6.60
2023-09-15T11:12:44.348Z,6.68
2023-09-15T11:15:20.053Z,3.25
2023-09-15T11:17:53.598Z,6.68
2023-09-15T11:20:23.266Z,4.78
2023-09-15T11:22:59.279Z,8.05
2023-09-15T11:25:34.329Z,5.80
2023-09-15T11:28:10.847Z,4.63
2023-09-15T11:30:41.633Z,5.50
2023-09-15T11:33:19.724Z,5.95
2023-09-15T11:35:56.052Z,4.72
2023-09-15T11:38:28.625Z,4.38
2023-09-15T11:40:59.792Z,3.80
2023-09-15T11:43:32.734Z,3.65
2023-09-15T11:46:05.834Z,4.63
2023-09-15T11:51:50.512Z,5.38
2023-09-15T11:54:29.862Z,3.33
2023-09-15T11:57:08.731Z,3.28
2023-09-15T11:59:45.193Z,2.25
2023-09-15T12:02:25.663Z,4.43
2023-09-15T12:04:55.562Z,4.28
2023-09-15T12:07:36.603Z,3.63
2023-09-15T12:10:14.819Z,4.68
2023-09-15T12:12:51.678Z,3.53
2023-09-15T12:15:30.791Z,2.90
2023-09-15T12:18:07.183Z,3.13
2023-09-15T12:20:44.897Z,3.40
2023-09-15T12:23:17.914Z,2.45
2023-09-15T12:25:47.988Z,4.68
2023-09-15T12:28:26.051Z,4.47
2023-09-15T12:30:56.049Z,2.90
2023-09-15T12:33:28.504Z,3.08
2023-09-15T12:35:55.958Z,3.83
2023-09-15T12:38:23.156Z,3.78
2023-09-15T12:40:53.934Z,4.13
2023-09-15T12:43:30.948Z,4.18
2023-09-15T12:45:58.110Z,3.08
2023-09-15T12:48:31.382Z,4.40
2023-09-15T12:50:59.263Z,3.58
2023-09-15T12:53:31.644Z,4.72
2023-09-15T12:56:01.779Z,4.82
2023-09-15T12:58:28.991Z,2.55
2023-09-15T13:00:58.219Z,3.95
2023-09-15T13:03:29.605Z,3.58
2023-09-15T13:05:57.317Z,3.58
2023-09-15T13:08:24.506Z,2.72
2023-09-15T13:10:56.251Z,3.33
2023-09-15T13:13:25.722Z,4.53
2023-09-15T13:15:53.471Z,2.95
2023-09-15T13:18:25.016Z,2.10
2023-09-15T13:20:58.382Z,4.45
2023-09-15T13:23:30.856Z,3.30
2023-09-15T13:25:58.406Z,3.15
2023-09-15T13:28:29.416Z,1.98
2023-09-15T13:30:59.766Z,2.88
2023-09-15T13:33:36.773Z,2.30
2023-09-15T13:36:10.939Z,3.17
2023-09-15T13:38:45.162Z,3.20
2023-09-15T13:41:20.179Z,2.30
2023-09-15T13:43:47.738Z,2.80
2023-09-15T13:46:18.297Z,3.30
2023-09-15T13:48:48.178Z,3.25
2023-09-15T13:51:28.946Z,3.05
2023-09-15T13:54:00.282Z,4.00
2023-09-15T13:56:30.289Z,2.58
2023-09-15T13:59:11.293Z,2.97
2023-09-15T14:01:43.832Z,3.00
2023-09-15T14:04:24.163Z,3.78
2023-09-15T14:06:59.736Z,5.70
2023-09-15T14:09:27.345Z,3.03
2023-09-15T14:11:57.750Z,4.57
2023-09-15T14:14:34.930Z,3.92
2023-09-15T14:17:02.603Z,3.92
2023-09-15T14:19:33.230Z,2.70
2023-09-15T14:22:03.707Z,2.28
2023-09-15T14:24:39.331Z,2.80
2023-09-15T14:27:10.072Z,2.38
2023-09-15T14:29:39.991Z,2.63
2023-09-15T14:32:31.909Z,2.63
2023-09-15T14:35:06.449Z,3.55
2023-09-15T14:37:37.991Z,4.32
2023-09-15T14:40:11.283Z,4.15
2023-09-15T14:42:50.114Z,2.47
2023-09-15T14:45:20.050Z,2.88
2023-09-15T14:47:50.660Z,4.13
2023-09-15T14:50:18.232Z,4.57
2023-09-15T14:52:47.755Z,3.75
2023-09-15T14:55:19.347Z,3.80
2023-09-15T14:57:56.152Z,2.90
2023-09-15T15:00:27.203Z,3.33
2023-09-15T15:02:59.861Z,2.00
2023-09-15T15:05:30.242Z,5.28
2023-09-15T15:08:07.959Z,3.92
2023-09-15T15:10:40.658Z,2.85
2023-09-15T15:13:16.942Z,3.50
2023-09-15T15:15:45.838Z,5.15
2023-09-15T15:18:18.318Z,2.85
2023-09-15T15:20:52.634Z,2.15
2023-09-15T15:23:27.496Z,3.45
2023-09-15T15:25:55.613Z,2.67
2023-09-15T15:28:23.436Z,3.70
2023-09-15T15:30:50.800Z,4.55
2023-09-15T15:33:18.763Z,3.67
2023-09-15T15:35:46.014Z,3.83
2023-09-15T15:38:12.981Z,3.05
2023-09-15T15:40:41.717Z,2.63
2023-09-15T15:43:08.943Z,3.45
2023-09-15T15:45:38.944Z,2.17
2023-09-15T15:48:14.409Z,4.15
2023-09-15T15:50:46.323Z,2.38
2023-09-15T15:53:20.949Z,4.18
2023-09-15T15:55:54.140Z,3.38
2023-09-15T15:58:21.226Z,2.42
2023-09-15T16:00:51.352Z,2.00
2023-09-15T16:03:26.207Z,2.50
2023-09-15T16:05:59.890Z,3.42
2023-09-15T16:08:34.738Z,3.83
2023-09-15T16:11:07.447Z,3.72
2023-09-15T16:13:38.403Z,3.00
2023-09-15T16:16:10.373Z,5.38
2023-09-15T16:18:38.066Z,3.28
2023-09-15T16:21:08.813Z,3.92
2023-09-15T16:23:43.099Z,4.00
2023-09-15T16:26:10.652Z,3.25
2023-09-15T16:28:40.658Z,2.72
2023-09-15T16:31:11.086Z,6.13
2023-09-15T16:33:40.852Z,5.25
2023-09-15T16:36:22.314Z,3.00
2023-09-15T16:38:58.596Z,1.90
2023-09-15T16:41:32.463Z,5.32
2023-09-15T16:44:07.092Z,3.17
2023-09-15T16:47:23.752Z,11.40
2023-09-15T16:52:42.318Z,5.57
2023-09-15T16:55:19.104Z,7.55
2023-09-15T16:57:48.520Z,5.28
2023-09-15T17:00:31.688Z,5.65
2023-09-15T17:02:58.284Z,5.90
2023-09-15T17:05:24.872Z,6.00
2023-09-15T17:07:51.483Z,6.07
2023-09-15T17:10:18.112Z,5.15
2023-09-15T17:12:44.947Z,8.75
2023-09-15T17:15:12.571Z,5.95
2023-09-15T17:17:41.272Z,7.97
2023-09-15T17:20:11.695Z,4.63
2023-09-15T17:22:38.317Z,6.82
2023-09-15T17:25:05.203Z,6.03
2023-09-15T17:27:31.962Z,4.85
2023-09-15T17:29:58.694Z,5.07
2023-09-15T17:32:25.312Z,6.45
2023-09-15T17:34:52.606Z,4.88
2023-09-15T17:37:19.155Z,4.78
2023-09-15T17:39:50.191Z,5.53
2023-09-15T17:42:20.259Z,7.22
2023-09-15T17:44:47.016Z,4.75
2023-09-15T17:47:13.649Z,6.82
2023-09-15T17:49:42.924Z,5.50
2023-09-15T17:52:10.896Z,5.68
2023-09-15T17:54:37.717Z,5.38
2023-09-15T17:57:04.634Z,8.82
2023-09-15T17:59:31.275Z,5.32
2023-09-15T18:01:57.741Z,5.53
2023-09-15T18:04:24.351Z,7.30
2023-09-15T18:06:51.017Z,6.70
2023-09-15T18:09:17.780Z,9.35
2023-09-15T18:11:44.368Z,10.02
2023-09-15T18:14:10.932Z,9.88
2023-09-15T18:16:37.546Z,6.30
2023-09-15T18:19:07.159Z,8.93
2023-09-15T18:21:33.830Z,7.97
2023-09-15T18:24:00.418Z,16.33
2023-09-15T18:26:27.027Z,7.97
2023-09-15T18:28:53.673Z,8.60
2023-09-15T18:31:20.215Z,9.55
2023-09-15T18:33:48.385Z,9.13
2023-09-15T18:36:15.258Z,11.60
2023-09-15T18:38:41.871Z,8.63
2023-09-15T18:41:08.549Z,8.88
2023-09-15T18:43:35.130Z,9.70
2023-09-15T18:46:01.925Z,7.97
2023-09-15T18:48:28.578Z,9.73
2023-09-15T18:50:55.180Z,11.45
2023-09-15T18:53:22.119Z,8.77
2023-09-15T18:55:48.717Z,5.85
2023-09-15T18:58:15.326Z,9.43
2023-09-15T19:00:42.379Z,9.40
2023-09-15T19:03:11.178Z,6.53
2023-09-15T19:05:37.906Z,8.30
2023-09-15T19:08:04.991Z,9.35
2023-09-15T19:10:32.729Z,6.10
2023-09-15T19:12:59.827Z,6.47
2023-09-15T19:15:27.351Z,7.70
2023-09-15T19:17:55.504Z,4.32
2023-09-15T19:20:22.156Z,9.60
2023-09-15T19:22:48.644Z,5.72
2023-09-15T19:25:15.359Z,6.18
2023-09-15T19:27:41.942Z,5.30
2023-09-15T19:30:09.069Z,5.93
2023-09-15T19:32:35.922Z,5.25
2023-09-15T19:35:02.527Z,6.95
2023-09-15T19:37:29.155Z,7.05
2023-09-15T19:39:55.860Z,10.30
2023-09-15T19:42:23.430Z,13.20
2023-09-15T19:44:50.589Z,8.13
2023-09-15T19:47:17.836Z,8.05
2023-09-15T19:49:44.986Z,9.27
2023-09-15T19:52:11.646Z,5.03
2023-09-15T19:54:38.264Z,6.20
2023-09-15T19:57:05.094Z,6.45
2023-09-15T19:59:31.664Z,6.50
2023-09-15T20:01:58.457Z,5.22
2023-09-15T20:04:25.161Z,8.18
2023-09-15T20:06:51.772Z,9.10
2023-09-15T20:09:18.929Z,7.15
2023-09-15T20:11:45.573Z,7.60
2023-09-15T20:14:12.223Z,9.38
2023-09-15T20:16:38.822Z,5.70
2023-09-15T20:19:05.725Z,6.65
2023-09-15T20:21:32.495Z,5.97
2023-09-15T20:23:59.067Z,6.32
2023-09-15T20:26:25.881Z,7.70
2023-09-15T20:28:52.432Z,6.18
2023-09-15T20:31:19.078Z,6.15
2023-09-15T20:33:45.720Z,7.25
2023-09-15T20:36:12.291Z,6.00
2023-09-15T20:38:38.869Z,6.50
2023-09-15T20:41:05.705Z,6.53
2023-09-15T20:43:32.295Z,7.10
2023-09-15T20:46:00.220Z,5.80
2023-09-15T20:48:27.061Z,6.20
2023-09-15T20:50:53.667Z,5.78
2023-09-15T20:53:20.335Z,7.07
2023-09-15T20:55:48.233Z,7.97
2023-09-15T20:58:16.514Z,6.55
2023-09-15T21:00:43.454Z,8.40
2023-09-15T21:03:10.334Z,7.93
2023-09-15T21:05:36.924Z,5.82
2023-09-15T21:08:03.892Z,9.93
2023-09-15T21:10:30.684Z,8.20
2023-09-15T21:12:58.565Z,9.13
2023-09-15T21:15:25.391Z,4.55
2023-09-15T21:17:53.158Z,6.72
2023-09-15T21:20:19.994Z,6.65
2023-09-15T21:22:46.585Z,5.32
2023-09-15T21:25:13.120Z,7.57
2023-09-15T21:27:39.765Z,8.82
2023-09-15T21:30:07.041Z,7.43
2023-09-15T21:32:33.636Z,6.85
2023-09-15T21:35:00.629Z,6.55
2023-09-15T21:37:27.657Z,7.68
2023-09-15T21:39:54.286Z,6.15
2023-09-15T21:42:21.014Z,7.38
2023-09-15T21:44:47.903Z,7.18
2023-09-15T21:47:15.381Z,6.50
2023-09-15T21:49:41.911Z,7.30
2023-09-15T21:52:08.503Z,5.65
2023-09-15T21:54:35.374Z,6.32
2023-09-15T21:57:01.976Z,10.07
2023-09-15T21:59:28.564Z,7.43
2023-09-15T22:01:55.960Z,6.65
2023-09-15T22:04:22.777Z,13.57
2023-09-15T22:06:49.368Z,11.60
2023-09-15T22:09:16.064Z,9.50
2023-09-15T22:11:42.680Z,10.93
2023-09-15T22:14:09.715Z,9.10
2023-09-15T22:16:37.114Z,9.27
2023-09-15T22:19:04.030Z,8.40
2023-09-15T22:21:30.669Z,8.77
2023-09-15T22:23:58.700Z,8.32
2023-09-15T22:26:25.413Z,8.57
2023-09-15T22:28:52.064Z,8.60
2023-09-15T22:31:18.625Z,8.52
2023-09-15T22:33:45.333Z,8.02
2023-09-15T22:36:11.897Z,6.80
2023-09-15T22:38:38.455Z,9.23
2023-09-15T22:41:16.443Z,7.82
2023-09-15T22:43:44.881Z,7.47
2023-09-15T22:46:23.579Z,8.25
2023-09-15T22:48:52.169Z,8.70
2023-09-15T22:51:18.913Z,6.75
2023-09-15T22:53:45.810Z,8.18
2023-09-15T22:56:12.412Z,8.50
2023-09-15T22:58:38.945Z,6.57
2023-09-15T23:01:06.347Z,7.20
2023-09-15T23:03:34.290Z,8.73
2023-09-15T23:06:00.908Z,8.07
2023-09-15T23:08:27.515Z,7.25
2023-09-15T23:11:01.011Z,7.15
2023-09-15T23:13:27.601Z,7.38
2023-09-15T23:16:04.700Z,8.45
2023-09-15T23:18:31.412Z,6.80
2023-09-15T23:20:57.967Z,10.70
2023-09-15T23:23:25.030Z,7.38
2023-09-15T23:25:51.595Z,7.75
2023-09-15T23:28:18.262Z,7.53
2023-09-15T23:30:44.851Z,7.47
2023-09-15T23:33:11.399Z,7.10
2023-09-15T23:35:38.000Z,6.10
2023-09-15T23:38:04.648Z,8.20
2023-09-15T23:40:31.165Z,7.85
2023-09-15T23:42:57.842Z,9.75
2023-09-15T23:45:25.568Z,7.35
2023-09-15T23:47:53.053Z,9.52
2023-09-15T23:50:20.236Z,9.48
2023-09-15T23:52:46.812Z,7.65
2023-09-15T23:55:13.378Z,5.95
2023-09-15T23:57:39.890Z,7.97
